Picacho, New Mexico
Current Conditions -  °F | °C
As of 4:51 PM on Wednesday 26 Nov 2014 (Local Time) from KROW Reporting Station
Clear Clear  
Wind Chill: 57°   Ceiling: Unl
Heat Index: 57°   Visibility: 10mi
Dew Point: 25°   Wind: 7mph
Humidity: 29%   Direction: 170°S
Pressure: 30.23"   Gusts: NA
Location:  33.41°N, 105.01°W
Report Text: KROW 262351Z 17006KT 10SM CLR 14/M04 A3023 RMK AO2 SLP219 T01391039 10194 20139 53008
Loading
Personal Weather Stations






























Interactive Weather Map New forecast layout! Learn more

10-Day Weather Forecast

Advertisements
Track Severe Weather on mobile